Aérodrome :
LOGIN :

S'inscrire | Disclaimer

   EN    FR    IT 

 










Légende :    VFR   VFR Marginal   IFR   IFR Intensif   IFR Très Intensif
Visi : 
Plafond : 
>= 8 km
>= 3000ft
5 à 8 km
1000 à 3000 ft
1500m à 5 km
500 à 1000 ft
800 à 1500m
200 à 500 ft
< 800m
< 200 ft
Symboles :   Orages  Brouillard  Fortes neiges  Fortes précipitations  Vent > 20 kt
SIGMETs :   Divers  Orages  Givrage  Turbulence  Onde Orograph.  Cendres Volcan.







- Altitude de l'aérodrome : 1302 ft
- Code IATA : GNB
- Voir les cartes d'approche


LFLS - Grenoble / St. Geoirs

DERNIER METAR :
  • 191830Z AUTO 07003KT 030V100 9999 FEW056 BKN068 OVC088 10/08 Q1022 TEMPO 34015KT 4000 SHRA SCT025CB

METARs EXPIRÉS :
  • 191800Z AUTO 36006KT 330V040 9999 FEW026 BKN043 BKN064 11/08 Q1022 TEMPO 4000 SHRA SCT025CB
  • 191730Z AUTO 35004KT 330V050 9999 BKN034 BKN043 BKN054 11/08 Q1021 TEMPO 34015KT 4000 SHRA SCT025CB
  • 191700Z AUTO VRB02KT 9999 ///TCU 11/07 Q1021 TEMPO 34015KT 4000 SHRA SCT025CB
  • 191630Z AUTO VRB03KT 9999 FEW037 12/07 Q1021 TEMPO 34015KT 4000 SHRA SCT025CB
  • 191600Z AUTO 30004KT 9999 FEW040 SCT060 BKN070 11/08 Q1021 TEMPO 34015KT 4000 SHRA SCT025CB

TAF TAF LFLS
Valide du 19 à 15h jusqu'au 20 à 15h UTC


191400Z 1915/2015 36005KT 9999 FEW020 BKN030
TEMPO 1915/1920 34015KT 4000 SHRA SCT025CB
PROB30
TEMPO 1915/1918 -TSRA
BECMG 1922/1924 VRB03KT OVC010
TEMPO 2003/2007 2000 BR OVC004
BECMG 2008/2010 36010KT SCT020
ATIS : +33 4 76 65 55 89
Pas de NOTAMs connus pour ce terrain.
3 SIGMETs publiés pour la FIR Marseille (LFMM) :
 
Turbulence forte
LFMM SIGMET 9 VALID 191600/192000 LFPW
LFMM MARSEILLE FIR/UIR SEV TURB FCST WI N4130 E00500 - N4400 E00500 - N4200 E00815 - N4045 E00715 SFC/FL050 STNR NC=
Turbulence forte
LFMM SIGMET 7 VALID 191600/192000 LFPW
LFMM MARSEILLE FIR/UIR SEV TURB FCST WI N4130 E00530 - N4400 E00330 - N4415 E00515 - N4200 E00700 FL200/320 MOV SE 60KT NC=
Orages noyés dans la masse
LFMM SIGMET 11 VALID 191800/192000 LFPW
LFMM MARSEILLE FIR/UIR EMBD TS OBS WI N4315 E00945 - N4115 E00945 - N4115 E00845 - N4245 E00830 TOP FL300 STNR NC=



MET'MAP, la Météo Aéronautique d'un coup d'oeil ! - Copyright ORBIFLY Décembre 2007 - Disclaimer

ORBIFLY MET'MAP TEAM :

Programmation & Développement : Alexandra Zaïnal
Conception & Développement : Baudouin d'Aumeries
Co-Programmation & Développement : Marc-Olivier Méhu
Soutien technique & logistique : Manuel Goepfert

Contact : metmap@orbifly.com




SOURCES & CREDITS :

   NOAA